Inuvik Mike Zubko Airport
CYEV : now visible

Airfield :











YOU CAN JOIN US ON...

 
LOGIN :

Register | Disclaimer

   EN    FR    IT 

 









Legend :    VFR   Marginal VFR   IFR   Intensive IFR   Very Intensive IFR
Visi :
Ceiling :
>= 8 km
>= 3000ft
5 to 8 km
1000 to 3000 ft
1500m to 5 km
500 to 1000 ft
800 to 1500m
200 to 500 ft
< 800m
< 200 ft
Symbols :   Thunderstorms  Fog  Heavy snow  Heavy precipitations  Wind > 20 kt






- Airport Elevation : 224 ft
- IATA code : YEV


CYEV - Inuvik Mike Zubko

CURRENT METAR :
  • 200500Z 09004KT 15SM SKC M29/M33 A2966 RMK SLP056

EXPIRED METARs :
  • 200400Z 00000KT 15SM SKC M28/M31 A2967 RMK SLP059
  • 200300Z 00000KT 15SM SKC M27/M30 A2966 RMK SLP058

TAF TAF CYEV
Valid from the 20 at 01:00 until the 20 at 13:00 UTC


200038Z 2001/2013 VRB03KT P6SM SKC
FM200700 VRB03KT P6SM SCT150
TEMPO 2007/2013 5SM IC BR BKN140 RMK NXT FCST BY 200700Z



MET'MAP, your aeronautical weather chart ! - Copyright ORBIFLY December 2007 - Disclaimer

ORBIFLY MET'MAP TEAM :

Programming & Development : Alexandra Zaïnal
Concept & original design : Baudouin d'Aumeries
Assistance for programming : Marc-Olivier Méhu
Technical & hardware support : Manuel Goepfert

Contact : metmap@orbifly.com




SOURCES & CREDITS :

   NOAA       Earth
Advisory